Alden, NY (14004)

3:18 PM EDT on August 30, 2016 (GMT -0400)
Millgrove | | Change Station

Elev 774 ft 42.95 °N, 78.55 °W | Updated 35 seconds ago

Scattered Clouds
Scattered Clouds
80.4 °F
Feels Like 82 °F
N
2.0
Wind Variable Wind from West
Gusts 5.0 mph

Today
High -- | Low -- °F
--% Chance of Precip.
Yesterday
High -- | Low -- °F
Precip. -- in
Pressure 30.10 in
Visibility 10.0 miles
Clouds Few 4500 ft
Scattered Clouds 25000 ft
Heat Index 82 °F
Dew Point 65 °F
Humidity 59%
Rainfall 0.00 in
Snow Depth Not available.
6:37 AM 7:51 PM
Waning Crescent, 3% visible
METAR KBUF 301854Z 25010KT 10SM FEW045 SCT250 27/15 A3010 RMK AO2 SLP191 T02670150
Pressure 30.10 in
Visibility 10.0 miles
Clouds Few 4500 ft
Scattered Clouds 25000 ft
Heat Index 82 °F
Dew Point 65 °F
Humidity 59%
Rainfall 0.00 in
Snow Depth Not available.
6:37 AM 7:51 PM
Waning Crescent, 3% visible
METAR KBUF 301854Z 25010KT 10SM FEW045 SCT250 27/15 A3010 RMK AO2 SLP191 T02670150

10-Day Weather Forecast

Almanac

Astronomy

Aug. 30, 2016 Rise Set
Actual Time
Civil Twilight
Nautical Twilight
Astronomical Twilight
Moon
Length of Visible Light
Length of Day
Tomorrow will be .
, % of the Moon is Illuminated

Today's Extremes

State Highs State Lows

Community

WunderPhotos

Upload Photos

1,935,882 photos uploaded!

WunderBlog® & News

Nearby

Air Quality

  Air Quality AQ Index Pollutant
Not available.

Snow Depth

Station Depth Elevation

Earthquake Activity

City Distance Mag. Time & Date
Minimum magnitude displayed is 2.5.

Coastal Water Temperatures

Place Temperature

Stations

Nearby Weather Stations

Station Location Temp. Windchill Dew Point Humidity Wind Precip. Elev Updated Type
                   

Watches & Warnings

There are currently no watches in effect.